METAR Data
IDs: Format: Raw Decoded Include TAF

Data at: 1120 UTC 18 Jan 2022

KY19 181115Z AUTO 27017KT 10SM CLR 04/M00 A2941 RMK AO2
KY19 181055Z AUTO 27017G22KT 10SM CLR 04/M00 A2941 RMK AO2
KY19 181035Z AUTO 27018G24KT 10SM CLR 04/M00 A2941 RMK AO2
KY19 181015Z AUTO 26014G21KT 10SM CLR 04/M00 A2941 RMK AO2
KY19 180955Z AUTO 26016KT 10SM CLR 03/M01 A2941 RMK AO2
KY19 180935Z AUTO 25012G17KT 10SM CLR 02/M01 A2942 RMK AO2
KY19 180915Z AUTO 26016KT 10SM CLR 04/M00 A2942 RMK AO2
KY19 180855Z AUTO 25014KT 10SM CLR 02/M01 A2942 RMK AO2
KY19 180835Z AUTO 24013KT 10SM CLR 02/M01 A2943 RMK AO2
KY19 180815Z AUTO 23013KT 10SM CLR 02/M01 A2944 RMK AO2
KY19 180755Z AUTO 23011KT 10SM CLR 02/M01 A2945 RMK AO2
KY19 180735Z AUTO 23011KT 10SM FEW100 02/M01 A2945 RMK AO2
KY19 180715Z AUTO 22013KT 10SM BKN100 03/M00 A2945 RMK AO2
KY19 180655Z AUTO 22011KT 10SM BKN100 02/M00 A2946 RMK AO2
KY19 180635Z AUTO 22011KT 10SM CLR 02/M00 A2948 RMK AO2
KY19 180615Z AUTO 21010KT 10SM CLR 02/00 A2949 RMK AO2
KY19 180555Z AUTO 21010KT 10SM CLR 00/M00 A2950 RMK AO2
KY19 180535Z AUTO 20009KT 10SM CLR M01/M01 A2951 RMK AO2
KY19 180515Z AUTO 19010KT 10SM CLR M01/M01 A2952 RMK AO2
KY19 180455Z AUTO 20008KT 10SM CLR M00/M00 A2953 RMK AO2
KY19 180435Z AUTO 21007KT 10SM CLR M01/M01 A2955 RMK AO2
KY19 180415Z AUTO 18007KT 10SM CLR M03/M02 A2955 RMK AO2
KY19 180355Z AUTO 15008KT 10SM CLR M02/M02 A2956 RMK AO2
KY19 180335Z AUTO 15007KT 10SM CLR M03/M03 A2958 RMK AO2
KY19 180315Z AUTO 15007KT 10SM CLR M03/M03 A2959 RMK AO2
KY19 180255Z AUTO 14007KT 10SM CLR M03/M03 A2960 RMK AO2
KY19 180235Z AUTO 14007KT 10SM CLR M03/M03 A2961 RMK AO2
KY19 180215Z AUTO 14007KT 10SM CLR M02/M02 A2962 RMK AO2
KY19 180155Z AUTO 13006KT 10SM CLR M02/M02 A2963 RMK AO2
KY19 180135Z AUTO 13006KT 10SM CLR M02/M02 A2964 RMK AO2
KY19 180115Z AUTO 10007KT 10SM CLR M02/M01 A2964 RMK AO2
KY19 180055Z AUTO 10006KT 10SM CLR M02/M02 A2964 RMK AO2
KY19 180035Z AUTO 10005KT 10SM CLR M02/M02 A2965 RMK AO2
KY19 180015Z AUTO 08005KT 10SM CLR M01/M02 A2965 RMK AO2
KY19 172355Z AUTO 09004KT 10SM CLR 02/M01 A2966 RMK AO2
KY19 172335Z AUTO 08003KT 10SM CLR 01/M01 A2966 RMK AO2
KY19 172315Z AUTO 00000KT 10SM FEW110 02/M01 A2966 RMK AO2
KY19 172255Z AUTO 00000KT 10SM CLR 02/M00 A2967 RMK AO2
KY19 172235Z AUTO 00000KT 10SM CLR 02/M00 A2966 RMK AO2
KY19 172215Z AUTO 00000KT 10SM CLR 03/M00 A2967 RMK AO2
KY19 172155Z AUTO 33003KT 10SM CLR 03/M00 A2968 RMK AO2
KY19 172135Z AUTO 00000KT 10SM CLR 03/M00 A2968 RMK AO2
KY19 172115Z AUTO 32004KT 10SM CLR 04/M00 A2968 RMK AO2
KY19 172055Z AUTO 30006KT 10SM CLR 04/M00 A2968 RMK AO2
KY19 172035Z AUTO 28008KT 10SM CLR 03/M01 A2968 RMK AO2
KY19 172015Z AUTO 27006KT 10SM CLR 03/M01 A2968 RMK AO2
KY19 171955Z AUTO 26004KT 10SM CLR 03/M01 A2968 RMK AO2
KY19 171935Z AUTO 31004KT 10SM CLR 03/M01 A2969 RMK AO2
KY19 171915Z AUTO 28004KT 10SM CLR 02/M01 A2970 RMK AO2
KY19 171855Z AUTO 00000KT 10SM CLR 02/M01 A2970 RMK AO2
KY19 171835Z AUTO 25003KT 10SM CLR 02/M01 A2971 RMK AO2
KY19 171815Z AUTO 22003KT 10SM CLR 01/M01 A2971 RMK AO2
KY19 171755Z AUTO 19003KT 10SM CLR 01/M01 A2972 RMK AO2
KY19 171735Z AUTO 18005KT 10SM CLR 00/M01 A2972 RMK AO2
KY19 171715Z AUTO 17006KT 10SM CLR M01/M01 A2973 RMK AO2
KY19 171655Z AUTO 19008KT 10SM CLR M01/M02 A2973 RMK AO2
KY19 171635Z AUTO 19007KT 10SM CLR M00/M01 A2973 RMK AO2
KY19 171615Z AUTO 19007KT 10SM CLR M01/M01 A2973 RMK AO2
KY19 171555Z AUTO 18008KT 10SM FEW075 FEW090 M02/M02 A2973 RMK AO2
KY19 171535Z AUTO 21006KT 10SM FEW075 BKN090 M03/M03 A2973 RMK AO2
KY19 171515Z AUTO 19003KT 10SM SCT070 BKN090 M03/M03 A2973 RMK AO2
KY19 171455Z AUTO 16006KT 10SM OVC070 M04/M04 A2973 RMK AO2
KY19 171435Z AUTO 13005KT 10SM OVC070 M04/M04 A2973 RMK AO2
KY19 171415Z AUTO 13005KT 10SM OVC070 M04/M04 A2973 RMK AO2
KY19 171355Z AUTO 10004KT 10SM OVC065 M04/M04 A2974 RMK AO2
KY19 171335Z AUTO 17006KT 10SM FEW039 FEW047 OVC060 M04/M03 A2974 RMK AO2
KY19 171315Z AUTO 15003KT 10SM FEW047 OVC060 M04/M04 A2976 RMK AO2
KY19 171255Z AUTO 13006KT 10SM SCT060 OVC075 M04/M04 A2975 RMK AO2
KY19 171235Z AUTO 14007KT 10SM FEW060 OVC075 M04/M04 A2975 RMK AO2
KY19 171215Z AUTO 11004KT 10SM FEW045 SCT060 BKN075 M03/M03 A2975 RMK AO2
KY19 171155Z AUTO 17006KT 10SM FEW045 SCT065 OVC075 M03/M03 A2977 RMK AO2
KY19 171135Z AUTO 16005KT 10SM SCT055 OVC065 M04/M03 A2977 RMK AO2
KY19 171115Z AUTO 16006KT 10SM OVC070 M03/M03 A2977 RMK AO2
KY19 171055Z AUTO 17006KT 10SM OVC070 M03/M03 A2978 RMK AO2
KY19 171035Z AUTO 20005KT 10SM OVC075 M03/M03 A2979 RMK AO2
KY19 171015Z AUTO 21004KT 10SM OVC075 M03/M03 A2979 RMK AO2
KY19 170955Z AUTO 22006KT 10SM FEW060 OVC075 M03/M03 A2980 RMK AO2
KY19 170935Z AUTO 23005KT 10SM BKN075 OVC090 M04/M04 A2982 RMK AO2
KY19 170915Z AUTO 24008KT 10SM BKN080 OVC100 M03/M03 A2982 RMK AO2
KY19 170855Z AUTO 24005KT 10SM SCT080 OVC110 M04/M04 A2983 RMK AO2
KY19 170835Z AUTO 25004KT 10SM OVC100 M04/M04 A2984 RMK AO2
KY19 170815Z AUTO 24006KT 10SM OVC110 M04/M04 A2985 RMK AO2
KY19 170755Z AUTO 24005KT 10SM OVC110 M05/M05 A2985 RMK AO2
KY19 170735Z AUTO 24005KT 10SM BKN110 M05/M05 A2986 RMK AO2
KY19 170715Z AUTO 24005KT 10SM BKN110 M05/M05 A2987 RMK AO2
KY19 170655Z AUTO 24004KT 10SM FEW120 M06/M06 A2988 RMK AO2
KY19 170635Z AUTO 25006KT 10SM CLR M05/M05 A2989 RMK AO2
KY19 170615Z AUTO 25005KT 10SM CLR M05/M05 A2989 RMK AO2
KY19 170555Z AUTO 25006KT 10SM CLR M05/M05 A2989 RMK AO2
KY19 170535Z AUTO 26007KT 10SM CLR M05/M05 A2989 RMK AO2
KY19 170515Z AUTO 25006KT 10SM CLR M04/M04 A2990 RMK AO2
KY19 170455Z AUTO 26005KT 10SM CLR M05/M05 A2990 RMK AO2
KY19 170435Z AUTO 26005KT 10SM CLR M04/M04 A2991 RMK AO2
KY19 170415Z AUTO 26005KT 10SM CLR M03/M03 A2991 RMK AO2
KY19 170355Z AUTO 27004KT 10SM CLR M03/M03 A2992 RMK AO2
KY19 170335Z AUTO 25004KT 10SM CLR M03/M03 A2993 RMK AO2
KY19 170315Z AUTO 24005KT 10SM CLR M03/M03 A2993 RMK AO2
KY19 170255Z AUTO 26009KT 10SM CLR M03/M03 A2994 RMK AO2
KY19 170235Z AUTO 25006KT 10SM CLR M02/M02 A2995 RMK AO2
KY19 170215Z AUTO 24007KT 10SM CLR M03/M03 A2995 RMK AO2
KY19 170155Z AUTO 23006KT 10SM CLR M02/M02 A2995 RMK AO2
KY19 170135Z AUTO 24007KT 10SM CLR M02/M02 A2995 RMK AO2
KY19 170115Z AUTO 24005KT 10SM CLR M02/M02 A2995 RMK AO2
KY19 170055Z AUTO 26005KT 10SM CLR M02/M02 A2995 RMK AO2
KY19 170035Z AUTO 22005KT 10SM CLR M02/M02 A2995 RMK AO2
KY19 170015Z AUTO 25005KT 10SM CLR M02/M02 A2995 RMK AO2
KY19 162355Z AUTO 31006KT 10SM CLR M01/M01 A2995 RMK AO2
KY19 162335Z AUTO 31010KT 10SM CLR M00/M01 A2996 RMK AO2